SCSE/LSC METAR and TAF weather

Enter ICAO airport designator
Station Type Date Time Source
SCSE METAR 2021/03/08 15:00 UTC NOAA

SCSE 081500Z 28011KT 9999 FEW010 OVC015 18/15 Q1016


Station Type Date Time Source
SCSE Decoded METAR 2021/03/08 15:00 UTC NOAA

La Serena, Chile (SCSE) 29-54S 071-12W
Mar 08, 2021 - 10:00 AM EST / 2021.03.08 1500 UTC
Wind: from the W (280 degrees) at 13 MPH (11 KT):0
Visibility: greater than 7 mile(s):0
Sky conditions: overcast
Temperature: 64 F (18 C)
Dew Point: 59 F (15 C)
Relative Humidity: 82%
Pressure (altimeter): 30.00 in. Hg (1016 hPa)
ob: SCSE 081500Z 28011KT 9999 FEW010 OVC015 18/15 Q1016
cycle: 15

Station Type Date Time Source
SCSE TAF 2021/03/08 12:03 UTC NOAA

TAF TAF SCSE 081000Z 0812/0912 26004KT 9999 OVC008 TX18/0818Z TN15/0911Z
BECMG 0815/0817 33010KT SCT012 BKN015
BECMG 0818/0820 SCT015
BECMG 0902/0904 15004KT BKN010
BECMG 0910/0912 3000 BR BKN005 OVC010

Example: see airport list